createdAt,value
2022-12-08T00:00:41.289Z,7.20
2022-12-08T00:03:27.935Z,7.30
2022-12-08T00:06:54.408Z,7.30
2022-12-08T00:09:41.645Z,7.30
2022-12-08T00:12:28.450Z,7.40
2022-12-08T00:15:14.141Z,7.60
2022-12-08T00:18:00.768Z,7.30
2022-12-08T00:20:46.743Z,7.20
2022-12-08T00:23:32.711Z,7.30
2022-12-08T00:26:18.440Z,7.20
2022-12-08T00:29:05.499Z,7.00
2022-12-08T00:31:51.287Z,7.20
2022-12-08T00:34:37.527Z,7.40
2022-12-08T00:37:23.585Z,7.40
2022-12-08T00:40:09.500Z,7.00
2022-12-08T00:42:55.199Z,6.70
2022-12-08T00:45:41.336Z,6.80
2022-12-08T00:48:27.445Z,6.90
2022-12-08T00:51:12.834Z,6.90
2022-12-08T00:53:58.640Z,6.90
2022-12-08T00:56:44.004Z,7.00
2022-12-08T00:59:29.839Z,7.00
2022-12-08T01:02:15.443Z,6.70
2022-12-08T01:05:02.677Z,6.90
2022-12-08T01:07:49.418Z,7.00
2022-12-08T01:10:36.783Z,6.90
2022-12-08T01:13:22.852Z,7.00
2022-12-08T01:16:08.964Z,7.00
2022-12-08T01:18:55.282Z,7.00
2022-12-08T01:21:42.286Z,6.90
2022-12-08T01:24:27.969Z,7.30
2022-12-08T01:27:16.326Z,7.20
2022-12-08T01:30:02.948Z,7.10
2022-12-08T01:32:49.437Z,7.00
2022-12-08T01:35:35.250Z,7.10
2022-12-08T01:38:22.754Z,7.00
2022-12-08T01:41:13.756Z,7.10
2022-12-08T01:44:02.213Z,7.10
2022-12-08T01:46:51.244Z,7.30
2022-12-08T01:49:37.587Z,6.80
2022-12-08T01:52:42.905Z,6.90
2022-12-08T01:55:35.788Z,7.00
2022-12-08T01:58:27.431Z,7.00
2022-12-08T02:01:13.556Z,6.70
2022-12-08T02:04:02.573Z,6.70
2022-12-08T02:06:51.056Z,6.80
2022-12-08T02:09:40.159Z,7.00
2022-12-08T02:12:26.171Z,7.00
2022-12-08T02:15:12.182Z,7.20
2022-12-08T02:18:21.216Z,7.30
2022-12-08T02:21:11.109Z,7.40
2022-12-08T02:24:06.062Z,7.50
2022-12-08T02:27:30.516Z,7.30
2022-12-08T02:30:24.263Z,6.80
2022-12-08T02:34:03.881Z,7.20
2022-12-08T02:37:09.847Z,7.40
2022-12-08T02:40:23.675Z,7.50
2022-12-08T02:43:25.567Z,7.60
2022-12-08T02:46:35.793Z,7.50
2022-12-08T02:49:22.025Z,7.50
2022-12-08T02:52:13.689Z,7.50
2022-12-08T02:55:04.097Z,7.50
2022-12-08T02:57:52.806Z,7.40
2022-12-08T03:01:01.576Z,7.10
2022-12-08T03:04:19.597Z,7.10
2022-12-08T03:07:12.921Z,7.30
2022-12-08T03:10:04.550Z,7.30
2022-12-08T03:13:09.909Z,7.30
2022-12-08T03:15:56.603Z,7.10
2022-12-08T03:18:47.474Z,7.00
2022-12-08T03:21:34.797Z,7.30
2022-12-08T03:24:23.446Z,7.30
2022-12-08T03:27:22.411Z,7.30
2022-12-08T03:30:09.745Z,7.40
2022-12-08T03:33:15.874Z,7.40
2022-12-08T03:36:05.286Z,7.30
2022-12-08T03:38:53.940Z,7.50
2022-12-08T03:41:39.251Z,7.40
2022-12-08T03:44:24.866Z,7.50
2022-12-08T03:47:10.907Z,7.30
2022-12-08T03:49:56.992Z,7.40
2022-12-08T03:52:43.056Z,7.30
2022-12-08T03:55:29.123Z,7.30
2022-12-08T03:58:14.535Z,7.40
2022-12-08T04:01:00.796Z,7.30
2022-12-08T04:03:46.645Z,7.20
2022-12-08T04:06:32.253Z,7.40
2022-12-08T04:09:18.509Z,7.40
2022-12-08T04:12:04.595Z,7.40
2022-12-08T04:14:50.273Z,7.30
2022-12-08T04:17:35.619Z,7.30
2022-12-08T04:20:21.387Z,7.20
2022-12-08T04:23:08.124Z,6.90
2022-12-08T04:25:54.131Z,6.80
2022-12-08T04:28:39.861Z,6.90
2022-12-08T04:31:25.328Z,6.90
2022-12-08T04:34:12.311Z,7.10
2022-12-08T04:36:57.888Z,7.00
2022-12-08T04:39:43.634Z,7.00
2022-12-08T04:42:30.917Z,7.00
2022-12-08T04:45:18.376Z,6.70
2022-12-08T04:48:05.139Z,5.80
2022-12-08T04:50:52.658Z,6.70
2022-12-08T04:53:43.405Z,6.80
2022-12-08T04:56:32.036Z,6.00
2022-12-08T04:59:17.978Z,7.00
2022-12-08T05:02:03.942Z,6.90
2022-12-08T05:04:49.857Z,6.80
2022-12-08T05:07:36.339Z,6.60
2022-12-08T05:10:22.134Z,6.50
2022-12-08T05:13:08.039Z,6.30
2022-12-08T05:15:53.724Z,6.40
2022-12-08T05:18:40.352Z,6.80
2022-12-08T05:21:26.186Z,6.90
2022-12-08T05:24:11.938Z,7.00
2022-12-08T05:26:57.634Z,6.90
2022-12-08T05:29:43.351Z,6.70
2022-12-08T05:32:29.064Z,6.60
2022-12-08T05:35:14.952Z,6.60
2022-12-08T05:38:00.610Z,6.60
2022-12-08T05:40:46.559Z,6.80
2022-12-08T05:43:32.436Z,6.80
2022-12-08T05:46:18.680Z,6.40
2022-12-08T05:49:04.652Z,6.70
2022-12-08T05:51:50.493Z,6.70
2022-12-08T05:54:36.528Z,6.60
2022-12-08T05:57:22.404Z,6.50
2022-12-08T06:00:08.761Z,6.70
2022-12-08T06:02:57.946Z,6.90
2022-12-08T06:05:45.411Z,6.80
2022-12-08T06:08:30.946Z,6.60
2022-12-08T06:11:21.871Z,6.50
2022-12-08T06:14:12.187Z,6.50
2022-12-08T06:16:57.962Z,6.70
2022-12-08T06:19:44.493Z,6.70
2022-12-08T06:22:30.451Z,6.60
2022-12-08T06:25:15.926Z,6.70
2022-12-08T06:28:02.734Z,6.70
2022-12-08T06:30:48.456Z,6.70
2022-12-08T06:33:34.679Z,6.50
2022-12-08T06:36:22.961Z,6.70
2022-12-08T06:39:10.262Z,6.80
2022-12-08T06:42:13.894Z,6.60
2022-12-08T06:45:00.497Z,6.50
2022-12-08T06:47:46.599Z,6.50
2022-12-08T06:50:35.008Z,6.70
2022-12-08T06:53:20.919Z,6.50
2022-12-08T06:56:07.535Z,6.60
2022-12-08T06:58:53.571Z,6.70
2022-12-08T07:01:39.383Z,6.90
2022-12-08T07:04:25.304Z,6.70
2022-12-08T07:07:10.935Z,6.60
2022-12-08T07:09:57.158Z,6.60
2022-12-08T07:12:43.211Z,6.60
2022-12-08T07:15:29.340Z,6.70
2022-12-08T07:18:14.642Z,7.00
2022-12-08T07:21:08.863Z,6.90
2022-12-08T07:23:57.643Z,6.90
2022-12-08T07:26:43.687Z,7.00
2022-12-08T07:29:29.383Z,7.00
2022-12-08T07:32:14.928Z,7.00
2022-12-08T07:35:01.023Z,7.10
2022-12-08T07:37:46.886Z,7.10
2022-12-08T07:40:32.598Z,7.00
2022-12-08T07:43:18.662Z,7.10
2022-12-08T07:46:04.621Z,7.00
2022-12-08T07:48:53.057Z,6.90
2022-12-08T07:51:38.926Z,6.90
2022-12-08T07:54:24.849Z,6.40
2022-12-08T07:57:11.019Z,6.50
2022-12-08T07:59:56.473Z,6.80
2022-12-08T08:02:43.212Z,7.10
2022-12-08T08:05:29.277Z,7.00
2022-12-08T08:08:15.098Z,6.70
2022-12-08T08:11:05.183Z,6.80
2022-12-08T08:13:57.070Z,6.60
2022-12-08T08:16:46.916Z,6.30
2022-12-08T08:19:37.462Z,6.70
2022-12-08T08:22:23.133Z,6.90
2022-12-08T08:25:09.282Z,6.60
2022-12-08T08:27:55.239Z,6.60
2022-12-08T08:30:41.514Z,6.70
2022-12-08T08:33:27.832Z,7.00
2022-12-08T08:36:13.665Z,7.00
2022-12-08T08:38:58.947Z,7.00
2022-12-08T08:41:45.592Z,6.90
2022-12-08T08:44:32.189Z,7.10
2022-12-08T08:47:18.181Z,7.10
2022-12-08T08:50:05.380Z,7.40
2022-12-08T08:52:51.764Z,7.20
2022-12-08T08:55:39.645Z,7.30
2022-12-08T08:58:25.561Z,7.30
2022-12-08T09:01:23.234Z,7.50
2022-12-08T09:04:10.380Z,7.50
2022-12-08T09:06:56.148Z,7.40
2022-12-08T09:09:41.987Z,7.20
2022-12-08T09:12:28.647Z,7.40
2022-12-08T09:15:14.284Z,7.20
2022-12-08T09:18:00.223Z,7.20
2022-12-08T09:20:45.996Z,7.00
2022-12-08T09:23:35.444Z,7.10
2022-12-08T09:26:22.562Z,6.90
2022-12-08T09:29:08.665Z,7.00
2022-12-08T09:31:54.680Z,7.20
2022-12-08T09:34:40.547Z,7.40
2022-12-08T09:37:30.725Z,7.30
2022-12-08T09:40:20.444Z,7.50
2022-12-08T09:43:55.252Z,7.90
2022-12-08T09:46:43.634Z,7.90
2022-12-08T09:49:42.592Z,7.90
2022-12-08T09:52:38.113Z,7.80
2022-12-08T09:55:38.190Z,7.80
2022-12-08T09:58:47.614Z,7.40
2022-12-08T10:01:39.774Z,7.40
2022-12-08T10:04:36.326Z,7.90
2022-12-08T10:07:47.400Z,7.90
2022-12-08T10:10:39.208Z,7.80
2022-12-08T10:13:42.450Z,8.00
2022-12-08T10:16:36.797Z,8.30
2022-12-08T10:19:25.330Z,7.90
2022-12-08T10:22:32.138Z,7.80
2022-12-08T10:25:17.717Z,8.40
2022-12-08T10:28:03.621Z,8.90
2022-12-08T10:30:49.525Z,9.10
2022-12-08T10:33:35.111Z,8.80
2022-12-08T10:36:20.993Z,9.10
2022-12-08T10:39:31.812Z,9.10
2022-12-08T10:42:21.495Z,9.00
2022-12-08T10:45:10.493Z,8.90
2022-12-08T10:47:58.531Z,8.80
2022-12-08T10:50:56.572Z,8.60
2022-12-08T10:53:46.956Z,9.20
2022-12-08T10:56:33.489Z,9.50
2022-12-08T10:59:20.057Z,9.70
2022-12-08T11:02:17.125Z,9.80
2022-12-08T11:05:02.650Z,9.00
2022-12-08T11:07:53.926Z,8.70
2022-12-08T11:10:46.053Z,8.40
2022-12-08T11:13:31.681Z,8.40
2022-12-08T11:16:19.306Z,8.40
2022-12-08T11:19:08.311Z,8.30
2022-12-08T11:21:54.615Z,8.50
2022-12-08T11:24:40.207Z,9.00
2022-12-08T11:27:26.307Z,9.10
2022-12-08T11:30:21.107Z,9.20
2022-12-08T11:33:20.532Z,8.90
2022-12-08T11:36:10.396Z,9.00
2022-12-08T11:39:02.602Z,9.00
2022-12-08T11:41:49.067Z,8.60
2022-12-08T11:45:08.399Z,8.60
2022-12-08T11:48:06.005Z,8.60
2022-12-08T11:51:06.853Z,8.70
2022-12-08T11:54:20.383Z,8.70
2022-12-08T11:57:12.696Z,8.50
2022-12-08T12:00:00.829Z,8.40
2022-12-08T12:02:52.645Z,8.40
2022-12-08T12:06:12.621Z,8.30
2022-12-08T12:09:13.224Z,8.30
2022-12-08T12:12:26.460Z,8.70
2022-12-08T12:16:03.086Z,8.90
2022-12-08T12:19:00.254Z,8.50
2022-12-08T12:21:53.161Z,8.60
2022-12-08T12:24:39.536Z,8.80
2022-12-08T12:27:40.367Z,8.60
2022-12-08T12:30:28.549Z,8.90
2022-12-08T12:33:17.795Z,8.90
2022-12-08T12:36:07.697Z,9.00
2022-12-08T12:39:01.209Z,9.10
2022-12-08T12:41:55.760Z,9.00
2022-12-08T12:44:43.640Z,8.80
2022-12-08T12:48:03.620Z,8.80
2022-12-08T12:50:51.192Z,8.80
2022-12-08T12:53:37.054Z,9.00
2022-12-08T12:57:05.275Z,9.00
2022-12-08T12:59:55.925Z,9.10
2022-12-08T13:02:44.750Z,9.00
2022-12-08T13:05:35.515Z,8.90
2022-12-08T13:08:23.905Z,9.20
2022-12-08T13:11:10.937Z,9.30
2022-12-08T13:13:59.865Z,9.10
2022-12-08T13:16:55.126Z,9.10
2022-12-08T13:19:48.818Z,9.20
2022-12-08T13:23:26.237Z,9.00
2022-12-08T13:26:24.260Z,9.00
2022-12-08T13:29:26.577Z,8.60
2022-12-08T13:32:11.888Z,9.10
2022-12-08T13:35:00.321Z,9.30
2022-12-08T13:37:54.836Z,9.30
2022-12-08T13:40:43.168Z,9.60
2022-12-08T13:44:02.172Z,9.40
2022-12-08T13:47:25.106Z,9.60
2022-12-08T13:54:16.977Z,9.50
2022-12-08T13:57:03.926Z,9.60
2022-12-08T13:59:48.305Z,9.50
2022-12-08T14:02:46.983Z,9.70
2022-12-08T14:06:10.968Z,9.40
2022-12-08T14:09:02.265Z,9.10
2022-12-08T14:12:01.143Z,9.20
2022-12-08T14:15:06.036Z,9.50
2022-12-08T14:17:56.833Z,9.70
2022-12-08T14:21:12.644Z,9.80
2022-12-08T14:23:48.300Z,9.60
2022-12-08T14:26:35.443Z,9.20
2022-12-08T14:29:48.826Z,9.20
2022-12-08T14:32:39.135Z,9.20
2022-12-08T14:35:33.720Z,9.00
2022-12-08T14:38:21.825Z,9.10
2022-12-08T14:41:11.649Z,9.00
2022-12-08T14:44:01.820Z,9.00
2022-12-08T14:47:21.210Z,8.50
2022-12-08T14:50:35.661Z,8.30
2022-12-08T14:53:22.010Z,8.30
2022-12-08T14:56:38.865Z,8.10
2022-12-08T14:59:31.223Z,8.40
2022-12-08T15:02:19.384Z,8.20
2022-12-08T15:05:16.394Z,8.80
2022-12-08T15:08:03.929Z,9.20
2022-12-08T15:11:21.871Z,9.00
2022-12-08T15:14:28.466Z,9.10
2022-12-08T15:17:35.669Z,9.30
2022-12-08T15:20:43.999Z,9.30
2022-12-08T15:23:32.393Z,8.30
2022-12-08T15:26:27.060Z,8.70
2022-12-08T15:29:25.070Z,8.50
2022-12-08T15:32:11.630Z,8.50
2022-12-08T15:34:57.233Z,8.30
2022-12-08T15:37:42.682Z,8.10
2022-12-08T15:40:28.492Z,8.40
2022-12-08T15:43:14.363Z,8.40
2022-12-08T15:46:00.646Z,8.40
2022-12-08T15:48:46.187Z,8.60
2022-12-08T15:51:36.815Z,8.70
2022-12-08T15:54:22.503Z,9.00
2022-12-08T15:57:53.434Z,8.90
2022-12-08T16:00:52.843Z,8.50
2022-12-08T16:04:27.639Z,8.10
2022-12-08T16:09:55.695Z,7.80
2022-12-08T16:16:11.554Z,8.00
2022-12-08T16:18:58.018Z,7.80
2022-12-08T16:24:49.109Z,7.40
2022-12-08T16:30:44.306Z,7.70
2022-12-08T16:33:29.956Z,8.30
2022-12-08T16:36:16.026Z,8.50
2022-12-08T16:39:01.441Z,8.20
2022-12-08T16:42:05.436Z,8.10
2022-12-08T16:44:51.246Z,8.10
2022-12-08T16:47:38.129Z,7.50
2022-12-08T16:50:27.129Z,8.00
2022-12-08T16:53:13.431Z,8.10
2022-12-08T16:55:59.188Z,8.40
2022-12-08T16:58:45.903Z,8.60
2022-12-08T17:01:32.237Z,8.60
2022-12-08T17:04:33.712Z,8.60
2022-12-08T17:07:19.606Z,8.90
2022-12-08T17:10:07.157Z,8.80
2022-12-08T17:12:54.121Z,9.00
2022-12-08T17:15:41.237Z,9.10
2022-12-08T17:18:26.617Z,9.30
2022-12-08T17:21:14.188Z,9.40
2022-12-08T17:24:01.629Z,9.40
2022-12-08T17:26:47.196Z,9.20
2022-12-08T17:29:34.391Z,9.10
2022-12-08T17:32:20.780Z,8.70
2022-12-08T17:35:07.850Z,8.60
2022-12-08T17:37:54.084Z,8.20
2022-12-08T17:40:40.309Z,8.20
2022-12-08T17:43:25.931Z,8.30
2022-12-08T17:46:17.733Z,8.60
2022-12-08T17:49:12.630Z,9.10
2022-12-08T17:51:59.913Z,9.00
2022-12-08T17:54:45.957Z,8.50
2022-12-08T17:57:31.417Z,8.40
2022-12-08T18:00:17.510Z,8.30
2022-12-08T18:03:03.492Z,8.60
2022-12-08T18:05:49.350Z,8.70
2022-12-08T18:08:35.637Z,8.80
2022-12-08T18:11:21.449Z,9.10
2022-12-08T18:14:10.857Z,9.10
2022-12-08T18:16:56.803Z,9.00
2022-12-08T18:19:42.603Z,9.00
2022-12-08T18:22:27.985Z,8.90
2022-12-08T18:25:14.820Z,9.40
2022-12-08T18:28:00.439Z,9.50
2022-12-08T18:30:46.037Z,9.60
2022-12-08T18:33:31.449Z,9.60
2022-12-08T18:36:20.568Z,9.20
2022-12-08T18:39:10.705Z,9.40
2022-12-08T18:41:57.983Z,8.90
2022-12-08T18:44:43.418Z,9.20
2022-12-08T18:47:29.254Z,8.80
2022-12-08T18:50:15.511Z,8.40
2022-12-08T18:53:01.964Z,8.60
2022-12-08T18:55:50.896Z,8.80
2022-12-08T18:58:36.851Z,8.50
2022-12-08T19:01:22.672Z,8.10
2022-12-08T19:04:27.942Z,8.10
2022-12-08T19:07:20.020Z,8.30
2022-12-08T19:10:07.040Z,8.20
2022-12-08T19:12:53.854Z,9.10
2022-12-08T19:15:40.097Z,8.10
2022-12-08T19:18:26.629Z,8.20
2022-12-08T19:21:12.683Z,8.70
2022-12-08T19:23:58.711Z,8.80
2022-12-08T19:26:45.198Z,8.70
2022-12-08T19:29:30.684Z,8.60
2022-12-08T19:32:16.489Z,8.50
2022-12-08T19:35:07.460Z,8.50
2022-12-08T19:37:54.830Z,8.40
2022-12-08T19:41:04.761Z,8.30
2022-12-08T19:44:09.960Z,8.30
2022-12-08T19:46:55.935Z,8.20
2022-12-08T19:49:41.967Z,8.30
2022-12-08T19:52:28.791Z,8.50
2022-12-08T19:55:14.796Z,8.70
2022-12-08T19:58:02.004Z,8.40
2022-12-08T20:00:47.909Z,8.40
2022-12-08T20:03:34.181Z,8.80
2022-12-08T20:06:20.112Z,8.80
2022-12-08T20:09:06.800Z,9.20
2022-12-08T20:11:54.845Z,9.40
2022-12-08T20:14:45.729Z,9.50
2022-12-08T20:17:31.536Z,9.50
2022-12-08T20:20:17.606Z,9.10
2022-12-08T20:23:04.003Z,9.10
2022-12-08T20:25:51.095Z,9.60
2022-12-08T20:28:37.146Z,9.60
2022-12-08T20:31:26.120Z,9.20
2022-12-08T20:34:16.784Z,8.70
2022-12-08T20:37:02.959Z,8.00
2022-12-08T20:39:48.866Z,7.80
2022-12-08T20:42:35.155Z,7.90
2022-12-08T20:45:21.365Z,8.20
2022-12-08T20:48:07.299Z,8.00
2022-12-08T20:50:53.230Z,7.80
2022-12-08T20:53:39.399Z,7.60
2022-12-08T20:56:26.446Z,7.30
2022-12-08T20:59:17.153Z,7.30
2022-12-08T21:02:03.240Z,7.60
2022-12-08T21:04:49.276Z,7.80
2022-12-08T21:07:35.745Z,7.90
2022-12-08T21:10:21.895Z,7.30
2022-12-08T21:13:08.415Z,7.80
2022-12-08T21:15:55.553Z,8.10
2022-12-08T21:18:42.881Z,7.40
2022-12-08T21:21:29.085Z,7.60
2022-12-08T21:24:15.806Z,7.60
2022-12-08T21:27:02.175Z,8.10
2022-12-08T21:29:48.068Z,8.10
2022-12-08T21:32:34.240Z,8.00
2022-12-08T21:35:20.450Z,8.00
2022-12-08T21:38:07.087Z,7.60
2022-12-08T21:40:53.037Z,7.70
2022-12-08T21:43:39.495Z,7.70
2022-12-08T21:46:25.695Z,8.30
2022-12-08T21:49:11.991Z,8.30
2022-12-08T21:51:58.315Z,8.60
2022-12-08T21:54:44.361Z,8.10
2022-12-08T21:57:30.386Z,7.70
2022-12-08T22:00:17.775Z,7.30
2022-12-08T22:03:04.885Z,7.30
2022-12-08T22:05:50.888Z,7.10
2022-12-08T22:08:37.485Z,7.20
2022-12-08T22:11:23.913Z,7.40
2022-12-08T22:14:14.427Z,7.40
2022-12-08T22:17:01.415Z,7.50
2022-12-08T22:19:47.259Z,8.00
2022-12-08T22:22:35.031Z,7.40
2022-12-08T22:25:21.116Z,7.60
2022-12-08T22:28:06.907Z,8.00
2022-12-08T22:30:52.886Z,7.70
2022-12-08T22:33:39.813Z,7.30
2022-12-08T22:36:27.704Z,7.20
2022-12-08T22:39:13.297Z,7.40
2022-12-08T22:41:59.306Z,7.00
2022-12-08T22:44:45.321Z,6.80
2022-12-08T22:47:31.252Z,6.20
2022-12-08T22:50:16.767Z,7.80
2022-12-08T22:53:02.954Z,8.00
2022-12-08T22:55:49.297Z,8.10
2022-12-08T22:58:34.883Z,8.40
2022-12-08T23:01:26.120Z,8.40
2022-12-08T23:04:17.469Z,8.50
2022-12-08T23:07:03.778Z,8.60
2022-12-08T23:09:49.556Z,7.60
2022-12-08T23:12:35.830Z,7.50
2022-12-08T23:15:21.381Z,7.70
2022-12-08T23:18:08.599Z,7.80
2022-12-08T23:20:54.412Z,7.90
2022-12-08T23:23:40.276Z,7.90
2022-12-08T23:26:27.953Z,7.80
2022-12-08T23:29:13.933Z,7.40
2022-12-08T23:31:59.883Z,7.10
2022-12-08T23:34:46.996Z,7.20
2022-12-08T23:37:33.267Z,7.10
2022-12-08T23:40:19.759Z,7.10
2022-12-08T23:43:06.311Z,6.80
2022-12-08T23:45:51.726Z,6.70
2022-12-08T23:48:37.457Z,6.70
2022-12-08T23:51:23.473Z,6.80
2022-12-08T23:54:09.305Z,6.80
2022-12-08T23:56:55.165Z,6.80
2022-12-08T23:59:41.412Z,6.90
